sensor_id;sensor_type;location;lat;lon;timestamp;P1;durP1;ratioP1;P2;durP2;ratioP2
21101;SDS011;10709;49.006;12.100;2023-07-22T00:05:06;3.47;;;2.17;;
21101;SDS011;10709;49.006;12.100;2023-07-22T00:08:25;2.35;;;2.15;;
21101;SDS011;10709;49.006;12.100;2023-07-22T00:12:09;4.10;;;2.25;;
21101;SDS011;10709;49.006;12.100;2023-07-22T00:19:08;2.20;;;1.90;;
21101;SDS011;10709;49.006;12.100;2023-07-22T00:22:51;3.35;;;2.65;;
21101;SDS011;10709;49.006;12.100;2023-07-22T00:26:34;3.05;;;2.30;;
21101;SDS011;10709;49.006;12.100;2023-07-22T00:37:26;2.47;;;2.00;;
21101;SDS011;10709;49.006;12.100;2023-07-22T00:48:55;3.15;;;2.00;;
21101;SDS011;10709;49.006;12.100;2023-07-22T00:59:12;3.53;;;2.22;;
21101;SDS011;10709;49.006;12.100;2023-07-22T01:01:41;3.17;;;1.80;;
21101;SDS011;10709;49.006;12.100;2023-07-22T01:04:08;2.38;;;2.03;;
21101;SDS011;10709;49.006;12.100;2023-07-22T01:06:35;2.67;;;2.05;;
21101;SDS011;10709;49.006;12.100;2023-07-22T01:09:03;2.97;;;1.83;;
21101;SDS011;10709;49.006;12.100;2023-07-22T01:11:35;3.35;;;1.95;;
21101;SDS011;10709;49.006;12.100;2023-07-22T01:14:02;2.88;;;1.98;;
21101;SDS011;10709;49.006;12.100;2023-07-22T01:16:32;2.75;;;1.92;;
21101;SDS011;10709;49.006;12.100;2023-07-22T01:18:59;3.00;;;2.08;;
21101;SDS011;10709;49.006;12.100;2023-07-22T01:22:06;2.08;;;1.88;;
21101;SDS011;10709;49.006;12.100;2023-07-22T01:25:55;2.03;;;1.83;;
21101;SDS011;10709;49.006;12.100;2023-07-22T01:45:16;3.33;;;2.20;;
21101;SDS011;10709;49.006;12.100;2023-07-22T01:56:54;2.50;;;2.30;;
21101;SDS011;10709;49.006;12.100;2023-07-22T02:00:51;3.15;;;2.20;;
21101;SDS011;10709;49.006;12.100;2023-07-22T02:16:14;3.47;;;2.22;;
21101;SDS011;10709;49.006;12.100;2023-07-22T02:19:37;3.63;;;1.90;;
21101;SDS011;10709;49.006;12.100;2023-07-22T02:53:29;2.35;;;2.10;;
21101;SDS011;10709;49.006;12.100;2023-07-22T03:01:16;3.72;;;2.15;;
21101;SDS011;10709;49.006;12.100;2023-07-22T03:12:04;2.83;;;2.20;;
21101;SDS011;10709;49.006;12.100;2023-07-22T03:15:47;2.80;;;2.20;;
21101;SDS011;10709;49.006;12.100;2023-07-22T03:27:40;3.22;;;2.15;;
21101;SDS011;10709;49.006;12.100;2023-07-22T03:35:28;5.10;;;2.40;;
21101;SDS011;10709;49.006;12.100;2023-07-22T03:43:13;4.30;;;2.20;;
21101;SDS011;10709;49.006;12.100;2023-07-22T03:50:58;5.87;;;2.20;;
21101;SDS011;10709;49.006;12.100;2023-07-22T03:55:14;2.92;;;2.30;;
21101;SDS011;10709;49.006;12.100;2023-07-22T03:57:59;4.63;;;2.57;;
21101;SDS011;10709;49.006;12.100;2023-07-22T04:00:51;5.07;;;3.00;;
21101;SDS011;10709;49.006;12.100;2023-07-22T04:03:42;3.37;;;2.70;;
21101;SDS011;10709;49.006;12.100;2023-07-22T04:06:30;3.10;;;2.50;;
21101;SDS011;10709;49.006;12.100;2023-07-22T04:09:14;2.67;;;2.10;;
21101;SDS011;10709;49.006;12.100;2023-07-22T04:11:55;3.27;;;2.70;;
21101;SDS011;10709;49.006;12.100;2023-07-22T04:14:23;3.00;;;2.60;;
21101;SDS011;10709;49.006;12.100;2023-07-22T04:16:51;3.43;;;2.90;;
21101;SDS011;10709;49.006;12.100;2023-07-22T04:19:19;4.88;;;2.80;;
21101;SDS011;10709;49.006;12.100;2023-07-22T04:21:48;6.40;;;2.97;;
21101;SDS011;10709;49.006;12.100;2023-07-22T04:24:15;3.43;;;2.60;;
21101;SDS011;10709;49.006;12.100;2023-07-22T04:26:46;3.53;;;2.63;;
21101;SDS011;10709;49.006;12.100;2023-07-22T04:29:13;2.65;;;2.35;;
21101;SDS011;10709;49.006;12.100;2023-07-22T04:31:40;5.67;;;2.47;;
21101;SDS011;10709;49.006;12.100;2023-07-22T04:34:08;4.37;;;2.70;;
21101;SDS011;10709;49.006;12.100;2023-07-22T04:36:36;3.57;;;2.77;;
21101;SDS011;10709;49.006;12.100;2023-07-22T04:39:04;3.77;;;2.47;;
21101;SDS011;10709;49.006;12.100;2023-07-22T04:41:37;3.38;;;2.53;;
21101;SDS011;10709;49.006;12.100;2023-07-22T04:44:10;3.50;;;2.47;;
21101;SDS011;10709;49.006;12.100;2023-07-22T04:46:53;2.73;;;2.37;;
21101;SDS011;10709;49.006;12.100;2023-07-22T04:49:22;3.63;;;2.50;;
21101;SDS011;10709;49.006;12.100;2023-07-22T04:52:07;4.90;;;2.63;;
21101;SDS011;10709;49.006;12.100;2023-07-22T04:54:38;4.90;;;3.00;;
21101;SDS011;10709;49.006;12.100;2023-07-22T04:57:13;3.10;;;2.73;;
21101;SDS011;10709;49.006;12.100;2023-07-22T04:59:48;3.43;;;2.60;;
21101;SDS011;10709;49.006;12.100;2023-07-22T05:02:18;3.50;;;2.47;;
21101;SDS011;10709;49.006;12.100;2023-07-22T05:05:01;5.83;;;3.10;;
21101;SDS011;10709;49.006;12.100;2023-07-22T05:07:44;3.33;;;2.90;;
21101;SDS011;10709;49.006;12.100;2023-07-22T05:10:16;2.83;;;2.43;;
21101;SDS011;10709;49.006;12.100;2023-07-22T05:13:20;4.20;;;2.80;;
21101;SDS011;10709;49.006;12.100;2023-07-22T05:16:05;4.30;;;2.85;;
21101;SDS011;10709;49.006;12.100;2023-07-22T05:18:40;3.60;;;2.57;;
21101;SDS011;10709;49.006;12.100;2023-07-22T05:21:24;3.80;;;2.70;;
21101;SDS011;10709;49.006;12.100;2023-07-22T05:23:56;4.37;;;2.43;;
21101;SDS011;10709;49.006;12.100;2023-07-22T05:26:43;3.33;;;2.17;;
21101;SDS011;10709;49.006;12.100;2023-07-22T05:29:34;3.30;;;2.58;;
21101;SDS011;10709;49.006;12.100;2023-07-22T05:32:30;4.43;;;2.55;;
21101;SDS011;10709;49.006;12.100;2023-07-22T05:35:00;3.83;;;2.47;;
21101;SDS011;10709;49.006;12.100;2023-07-22T05:37:42;3.03;;;2.72;;
21101;SDS011;10709;49.006;12.100;2023-07-22T05:40:09;3.13;;;2.50;;
21101;SDS011;10709;49.006;12.100;2023-07-22T05:42:37;4.90;;;2.67;;
21101;SDS011;10709;49.006;12.100;2023-07-22T05:45:03;2.72;;;2.42;;
21101;SDS011;10709;49.006;12.100;2023-07-22T05:47:30;2.95;;;2.60;;
21101;SDS011;10709;49.006;12.100;2023-07-22T05:49:57;3.72;;;2.70;;
21101;SDS011;10709;49.006;12.100;2023-07-22T05:52:24;3.47;;;2.88;;
21101;SDS011;10709;49.006;12.100;2023-07-22T05:54:53;3.90;;;2.75;;
21101;SDS011;10709;49.006;12.100;2023-07-22T05:57:19;4.07;;;2.67;;
21101;SDS011;10709;49.006;12.100;2023-07-22T05:59:46;3.38;;;2.75;;
21101;SDS011;10709;49.006;12.100;2023-07-22T06:02:31;3.03;;;2.72;;
21101;SDS011;10709;49.006;12.100;2023-07-22T06:04:58;3.25;;;2.85;;
21101;SDS011;10709;49.006;12.100;2023-07-22T06:07:25;6.93;;;2.80;;
21101;SDS011;10709;49.006;12.100;2023-07-22T06:09:52;3.70;;;3.03;;
21101;SDS011;10709;49.006;12.100;2023-07-22T06:12:18;4.47;;;2.63;;
21101;SDS011;10709;49.006;12.100;2023-07-22T06:14:45;3.47;;;2.60;;
21101;SDS011;10709;49.006;12.100;2023-07-22T06:17:11;4.05;;;2.55;;
21101;SDS011;10709;49.006;12.100;2023-07-22T06:19:38;6.05;;;2.97;;
21101;SDS011;10709;49.006;12.100;2023-07-22T06:22:04;5.70;;;3.25;;
21101;SDS011;10709;49.006;12.100;2023-07-22T06:24:31;29.15;;;8.68;;
21101;SDS011;10709;49.006;12.100;2023-07-22T06:26:58;12.10;;;5.32;;
21101;SDS011;10709;49.006;12.100;2023-07-22T06:29:24;5.75;;;3.78;;
21101;SDS011;10709;49.006;12.100;2023-07-22T06:31:51;4.28;;;3.40;;
21101;SDS011;10709;49.006;12.100;2023-07-22T06:34:18;3.85;;;2.80;;
21101;SDS011;10709;49.006;12.100;2023-07-22T06:36:45;3.38;;;2.60;;
21101;SDS011;10709;49.006;12.100;2023-07-22T06:39:11;6.97;;;2.65;;
21101;SDS011;10709;49.006;12.100;2023-07-22T06:41:38;5.15;;;3.03;;
21101;SDS011;10709;49.006;12.100;2023-07-22T06:44:05;4.30;;;2.85;;
21101;SDS011;10709;49.006;12.100;2023-07-22T06:46:31;4.22;;;2.88;;
21101;SDS011;10709;49.006;12.100;2023-07-22T06:48:58;5.18;;;2.70;;
21101;SDS011;10709;49.006;12.100;2023-07-22T06:51:27;3.13;;;2.67;;
21101;SDS011;10709;49.006;12.100;2023-07-22T06:53:54;4.43;;;2.80;;
21101;SDS011;10709;49.006;12.100;2023-07-22T06:56:20;5.18;;;2.70;;
21101;SDS011;10709;49.006;12.100;2023-07-22T06:58:47;3.25;;;2.67;;
21101;SDS011;10709;49.006;12.100;2023-07-22T07:01:14;3.00;;;2.70;;
21101;SDS011;10709;49.006;12.100;2023-07-22T07:03:41;4.70;;;2.83;;
21101;SDS011;10709;49.006;12.100;2023-07-22T07:06:13;3.30;;;3.00;;
21101;SDS011;10709;49.006;12.100;2023-07-22T07:08:40;3.22;;;2.60;;
21101;SDS011;10709;49.006;12.100;2023-07-22T07:11:07;4.30;;;2.50;;
21101;SDS011;10709;49.006;12.100;2023-07-22T07:13:34;3.03;;;2.60;;
21101;SDS011;10709;49.006;12.100;2023-07-22T07:16:19;4.88;;;2.40;;
21101;SDS011;10709;49.006;12.100;2023-07-22T07:18:47;3.78;;;2.60;;
21101;SDS011;10709;49.006;12.100;2023-07-22T07:21:14;4.05;;;2.70;;
21101;SDS011;10709;49.006;12.100;2023-07-22T07:23:40;2.95;;;2.50;;
21101;SDS011;10709;49.006;12.100;2023-07-22T07:26:26;4.72;;;2.75;;
21101;SDS011;10709;49.006;12.100;2023-07-22T07:30:02;3.90;;;2.45;;
21101;SDS011;10709;49.006;12.100;2023-07-22T07:34:01;3.63;;;2.50;;
21101;SDS011;10709;49.006;12.100;2023-07-22T07:37:44;2.38;;;2.17;;
21101;SDS011;10709;49.006;12.100;2023-07-22T07:41:20;3.67;;;2.20;;
21101;SDS011;10709;49.006;12.100;2023-07-22T07:45:25;2.97;;;2.38;;
21101;SDS011;10709;49.006;12.100;2023-07-22T07:52:13;3.45;;;2.10;;
21101;SDS011;10709;49.006;12.100;2023-07-22T07:55:37;4.35;;;2.40;;
21101;SDS011;10709;49.006;12.100;2023-07-22T07:59:07;6.30;;;2.80;;
21101;SDS011;10709;49.006;12.100;2023-07-22T08:05:41;5.03;;;2.17;;
21101;SDS011;10709;49.006;12.100;2023-07-22T08:08:52;3.80;;;2.20;;
21101;SDS011;10709;49.006;12.100;2023-07-22T08:12:23;2.55;;;2.30;;
21101;SDS011;10709;49.006;12.100;2023-07-22T08:16:14;3.20;;;2.20;;
21101;SDS011;10709;49.006;12.100;2023-07-22T08:20:20;3.25;;;1.88;;
21101;SDS011;10709;49.006;12.100;2023-07-22T08:23:47;2.10;;;1.90;;
21101;SDS011;10709;49.006;12.100;2023-07-22T08:27:05;3.80;;;2.10;;
21101;SDS011;10709;49.006;12.100;2023-07-22T08:30:36;2.67;;;1.90;;
21101;SDS011;10709;49.006;12.100;2023-07-22T08:33:45;2.47;;;2.10;;
21101;SDS011;10709;49.006;12.100;2023-07-22T08:40:58;2.65;;;2.40;;
21101;SDS011;10709;49.006;12.100;2023-07-22T08:45:14;3.03;;;2.03;;
21101;SDS011;10709;49.006;12.100;2023-07-22T08:49:39;2.63;;;1.98;;
21101;SDS011;10709;49.006;12.100;2023-07-22T08:53:51;2.45;;;2.00;;
21101;SDS011;10709;49.006;12.100;2023-07-22T09:00:44;2.47;;;2.20;;
21101;SDS011;10709;49.006;12.100;2023-07-22T09:07:52;3.30;;;2.00;;
21101;SDS011;10709;49.006;12.100;2023-07-22T09:27:45;2.90;;;1.85;;
21101;SDS011;10709;49.006;12.100;2023-07-22T09:38:44;6.32;;;2.20;;
21101;SDS011;10709;49.006;12.100;2023-07-22T09:46:49;3.08;;;2.03;;
21101;SDS011;10709;49.006;12.100;2023-07-22T09:50:38;3.40;;;2.28;;
21101;SDS011;10709;49.006;12.100;2023-07-22T10:02:12;4.63;;;2.30;;
21101;SDS011;10709;49.006;12.100;2023-07-22T10:05:19;2.53;;;1.95;;
21101;SDS011;10709;49.006;12.100;2023-07-22T10:08:18;3.13;;;2.08;;
21101;SDS011;10709;49.006;12.100;2023-07-22T10:12:01;3.63;;;2.08;;
21101;SDS011;10709;49.006;12.100;2023-07-22T10:15:52;3.22;;;2.00;;
21101;SDS011;10709;49.006;12.100;2023-07-22T10:19:48;3.03;;;1.85;;
21101;SDS011;10709;49.006;12.100;2023-07-22T10:43:05;2.90;;;1.90;;
21101;SDS011;10709;49.006;12.100;2023-07-22T10:46:50;3.50;;;2.00;;
21101;SDS011;10709;49.006;12.100;2023-07-22T10:54:58;4.32;;;2.10;;
21101;SDS011;10709;49.006;12.100;2023-07-22T11:02:47;2.20;;;1.70;;
21101;SDS011;10709;49.006;12.100;2023-07-22T11:14:48;2.88;;;1.85;;
21101;SDS011;10709;49.006;12.100;2023-07-22T11:22:11;2.53;;;1.73;;
21101;SDS011;10709;49.006;12.100;2023-07-22T11:25:51;1.92;;;1.77;;
21101;SDS011;10709;49.006;12.100;2023-07-22T11:29:48;2.45;;;1.60;;
21101;SDS011;10709;49.006;12.100;2023-07-22T11:33:22;2.08;;;1.80;;
21101;SDS011;10709;49.006;12.100;2023-07-22T11:37:14;2.13;;;1.92;;
21101;SDS011;10709;49.006;12.100;2023-07-22T11:41:11;3.25;;;2.35;;
21101;SDS011;10709;49.006;12.100;2023-07-22T11:56:40;2.92;;;1.83;;
21101;SDS011;10709;49.006;12.100;2023-07-22T12:00:15;2.53;;;1.95;;
21101;SDS011;10709;49.006;12.100;2023-07-22T12:04:23;2.10;;;1.80;;
21101;SDS011;10709;49.006;12.100;2023-07-22T12:08:22;2.15;;;1.90;;
21101;SDS011;10709;49.006;12.100;2023-07-22T12:12:34;3.08;;;2.20;;
21101;SDS011;10709;49.006;12.100;2023-07-22T12:20:33;2.47;;;1.83;;
21101;SDS011;10709;49.006;12.100;2023-07-22T12:24:30;3.05;;;2.00;;
21101;SDS011;10709;49.006;12.100;2023-07-22T12:28:32;2.13;;;1.70;;
21101;SDS011;10709;49.006;12.100;2023-07-22T12:32:14;2.47;;;1.80;;
21101;SDS011;10709;49.006;12.100;2023-07-22T12:35:47;2.67;;;1.90;;
21101;SDS011;10709;49.006;12.100;2023-07-22T12:39:36;2.05;;;1.85;;
21101;SDS011;10709;49.006;12.100;2023-07-22T12:43:33;3.08;;;1.80;;
21101;SDS011;10709;49.006;12.100;2023-07-22T12:47:53;2.35;;;1.80;;
21101;SDS011;10709;49.006;12.100;2023-07-22T13:06:45;4.70;;;1.90;;
21101;SDS011;10709;49.006;12.100;2023-07-22T13:10:35;3.55;;;2.00;;
21101;SDS011;10709;49.006;12.100;2023-07-22T13:18:18;2.05;;;1.85;;
21101;SDS011;10709;49.006;12.100;2023-07-22T13:22:17;2.55;;;2.00;;
21101;SDS011;10709;49.006;12.100;2023-07-22T13:26:21;2.83;;;2.10;;
21101;SDS011;10709;49.006;12.100;2023-07-22T13:37:51;2.72;;;2.20;;
21101;SDS011;10709;49.006;12.100;2023-07-22T13:41:42;2.85;;;2.00;;
21101;SDS011;10709;49.006;12.100;2023-07-22T13:45:51;2.47;;;1.95;;
21101;SDS011;10709;49.006;12.100;2023-07-22T13:49:45;3.10;;;1.92;;
21101;SDS011;10709;49.006;12.100;2023-07-22T14:01:22;2.45;;;2.22;;
21101;SDS011;10709;49.006;12.100;2023-07-22T14:16:41;3.03;;;2.20;;
21101;SDS011;10709;49.006;12.100;2023-07-22T14:20:15;2.30;;;2.10;;
21101;SDS011;10709;49.006;12.100;2023-07-22T14:24:06;2.70;;;2.30;;
21101;SDS011;10709;49.006;12.100;2023-07-22T14:28:12;3.47;;;2.30;;
21101;SDS011;10709;49.006;12.100;2023-07-22T14:35:18;3.60;;;2.30;;
21101;SDS011;10709;49.006;12.100;2023-07-22T14:42:30;2.30;;;2.10;;
21101;SDS011;10709;49.006;12.100;2023-07-22T14:46:19;2.78;;;2.15;;
21101;SDS011;10709;49.006;12.100;2023-07-22T14:50:01;2.60;;;2.15;;
21101;SDS011;10709;49.006;12.100;2023-07-22T15:01:41;3.00;;;2.13;;
21101;SDS011;10709;49.006;12.100;2023-07-22T15:13:18;3.70;;;2.42;;
21101;SDS011;10709;49.006;12.100;2023-07-22T15:21:23;2.50;;;2.30;;
21101;SDS011;10709;49.006;12.100;2023-07-22T15:28:45;2.20;;;2.00;;
21101;SDS011;10709;49.006;12.100;2023-07-22T15:39:54;3.05;;;2.00;;
21101;SDS011;10709;49.006;12.100;2023-07-22T15:43:55;2.45;;;2.05;;
21101;SDS011;10709;49.006;12.100;2023-07-22T15:46:21;2.30;;;2.10;;
21101;SDS011;10709;49.006;12.100;2023-07-22T15:48:48;3.42;;;1.90;;
21101;SDS011;10709;49.006;12.100;2023-07-22T15:51:14;2.80;;;2.40;;
21101;SDS011;10709;49.006;12.100;2023-07-22T15:53:41;3.38;;;2.60;;
21101;SDS011;10709;49.006;12.100;2023-07-22T15:56:08;2.22;;;2.03;;
21101;SDS011;10709;49.006;12.100;2023-07-22T15:58:34;2.47;;;1.90;;
21101;SDS011;10709;49.006;12.100;2023-07-22T16:01:03;4.55;;;2.08;;
21101;SDS011;10709;49.006;12.100;2023-07-22T16:03:29;2.63;;;2.20;;
21101;SDS011;10709;49.006;12.100;2023-07-22T16:05:56;2.58;;;2.10;;
21101;SDS011;10709;49.006;12.100;2023-07-22T16:08:25;3.15;;;2.00;;
21101;SDS011;10709;49.006;12.100;2023-07-22T16:10:52;2.33;;;2.13;;
21101;SDS011;10709;49.006;12.100;2023-07-22T16:13:18;2.95;;;2.08;;
21101;SDS011;10709;49.006;12.100;2023-07-22T16:15:45;2.72;;;2.30;;
21101;SDS011;10709;49.006;12.100;2023-07-22T16:18:11;3.65;;;2.10;;
21101;SDS011;10709;49.006;12.100;2023-07-22T16:20:38;2.55;;;2.03;;
21101;SDS011;10709;49.006;12.100;2023-07-22T16:23:04;2.30;;;2.00;;
21101;SDS011;10709;49.006;12.100;2023-07-22T16:25:31;2.88;;;2.20;;
21101;SDS011;10709;49.006;12.100;2023-07-22T16:27:58;2.70;;;1.90;;
21101;SDS011;10709;49.006;12.100;2023-07-22T16:30:24;2.80;;;2.00;;
21101;SDS011;10709;49.006;12.100;2023-07-22T16:32:52;2.42;;;2.00;;
21101;SDS011;10709;49.006;12.100;2023-07-22T16:35:19;2.50;;;2.17;;
21101;SDS011;10709;49.006;12.100;2023-07-22T16:37:46;2.75;;;1.90;;
21101;SDS011;10709;49.006;12.100;2023-07-22T16:40:13;2.28;;;1.92;;
21101;SDS011;10709;49.006;12.100;2023-07-22T16:42:40;3.75;;;2.20;;
21101;SDS011;10709;49.006;12.100;2023-07-22T16:45:07;2.33;;;2.13;;
21101;SDS011;10709;49.006;12.100;2023-07-22T16:47:34;2.72;;;2.00;;
21101;SDS011;10709;49.006;12.100;2023-07-22T16:50:01;2.40;;;2.20;;
21101;SDS011;10709;49.006;12.100;2023-07-22T16:52:29;2.65;;;2.03;;
21101;SDS011;10709;49.006;12.100;2023-07-22T16:54:55;2.97;;;2.10;;
21101;SDS011;10709;49.006;12.100;2023-07-22T16:57:22;2.40;;;1.98;;
21101;SDS011;10709;49.006;12.100;2023-07-22T16:59:48;2.45;;;2.13;;
21101;SDS011;10709;49.006;12.100;2023-07-22T17:02:15;2.13;;;1.65;;
21101;SDS011;10709;49.006;12.100;2023-07-22T17:04:41;2.42;;;2.05;;
21101;SDS011;10709;49.006;12.100;2023-07-22T17:07:08;2.65;;;2.20;;
21101;SDS011;10709;49.006;12.100;2023-07-22T17:09:35;2.30;;;2.10;;
21101;SDS011;10709;49.006;12.100;2023-07-22T17:12:02;3.35;;;1.90;;
21101;SDS011;10709;49.006;12.100;2023-07-22T17:14:29;2.47;;;1.88;;
21101;SDS011;10709;49.006;12.100;2023-07-22T17:16:56;3.17;;;1.92;;
21101;SDS011;10709;49.006;12.100;2023-07-22T17:19:23;2.65;;;2.00;;
21101;SDS011;10709;49.006;12.100;2023-07-22T17:21:49;1.92;;;1.83;;
21101;SDS011;10709;49.006;12.100;2023-07-22T17:24:16;2.00;;;1.80;;
21101;SDS011;10709;49.006;12.100;2023-07-22T17:26:42;2.25;;;1.90;;
21101;SDS011;10709;49.006;12.100;2023-07-22T17:29:09;2.25;;;1.90;;
21101;SDS011;10709;49.006;12.100;2023-07-22T17:31:37;2.20;;;1.98;;
21101;SDS011;10709;49.006;12.100;2023-07-22T17:34:04;2.60;;;1.90;;
21101;SDS011;10709;49.006;12.100;2023-07-22T17:36:30;3.75;;;1.90;;
21101;SDS011;10709;49.006;12.100;2023-07-22T17:38:57;6.30;;;2.10;;
21101;SDS011;10709;49.006;12.100;2023-07-22T17:41:23;3.17;;;2.00;;
21101;SDS011;10709;49.006;12.100;2023-07-22T17:43:50;2.25;;;2.03;;
21101;SDS011;10709;49.006;12.100;2023-07-22T17:46:16;3.35;;;2.08;;
21101;SDS011;10709;49.006;12.100;2023-07-22T17:48:43;2.20;;;2.00;;
21101;SDS011;10709;49.006;12.100;2023-07-22T17:51:12;3.15;;;1.80;;
21101;SDS011;10709;49.006;12.100;2023-07-22T17:53:39;3.17;;;2.00;;
21101;SDS011;10709;49.006;12.100;2023-07-22T17:56:05;3.03;;;2.17;;
21101;SDS011;10709;49.006;12.100;2023-07-22T17:58:32;2.85;;;1.90;;
21101;SDS011;10709;49.006;12.100;2023-07-22T18:00:58;2.67;;;2.25;;
21101;SDS011;10709;49.006;12.100;2023-07-22T18:03:27;2.28;;;2.08;;
21101;SDS011;10709;49.006;12.100;2023-07-22T18:05:53;2.42;;;2.10;;
21101;SDS011;10709;49.006;12.100;2023-07-22T18:08:20;3.22;;;2.10;;
21101;SDS011;10709;49.006;12.100;2023-07-22T18:10:50;2.47;;;2.17;;
21101;SDS011;10709;49.006;12.100;2023-07-22T18:13:16;2.97;;;2.25;;
21101;SDS011;10709;49.006;12.100;2023-07-22T18:15:43;2.42;;;2.08;;
21101;SDS011;10709;49.006;12.100;2023-07-22T18:18:09;5.10;;;2.30;;
21101;SDS011;10709;49.006;12.100;2023-07-22T18:20:36;2.80;;;2.20;;
21101;SDS011;10709;49.006;12.100;2023-07-22T18:23:04;2.35;;;1.98;;
21101;SDS011;10709;49.006;12.100;2023-07-22T18:25:30;2.50;;;2.00;;
21101;SDS011;10709;49.006;12.100;2023-07-22T18:27:57;3.08;;;2.28;;
21101;SDS011;10709;49.006;12.100;2023-07-22T18:30:23;2.22;;;1.83;;
21101;SDS011;10709;49.006;12.100;2023-07-22T18:32:50;3.85;;;2.10;;
21101;SDS011;10709;49.006;12.100;2023-07-22T18:35:16;3.95;;;2.10;;
21101;SDS011;10709;49.006;12.100;2023-07-22T18:37:43;2.25;;;2.05;;
21101;SDS011;10709;49.006;12.100;2023-07-22T18:40:10;4.63;;;2.40;;
21101;SDS011;10709;49.006;12.100;2023-07-22T18:42:36;3.20;;;2.25;;
21101;SDS011;10709;49.006;12.100;2023-07-22T18:45:03;2.78;;;2.33;;
21101;SDS011;10709;49.006;12.100;2023-07-22T18:47:31;2.35;;;2.08;;
21101;SDS011;10709;49.006;12.100;2023-07-22T18:49:57;2.85;;;2.22;;
21101;SDS011;10709;49.006;12.100;2023-07-22T18:52:24;2.80;;;2.08;;
21101;SDS011;10709;49.006;12.100;2023-07-22T18:54:51;2.45;;;1.90;;
21101;SDS011;10709;49.006;12.100;2023-07-22T18:57:17;3.58;;;2.20;;
21101;SDS011;10709;49.006;12.100;2023-07-22T18:59:44;4.65;;;2.13;;
21101;SDS011;10709;49.006;12.100;2023-07-22T19:02:11;5.47;;;2.35;;
21101;SDS011;10709;49.006;12.100;2023-07-22T19:04:37;3.88;;;2.20;;
21101;SDS011;10709;49.006;12.100;2023-07-22T19:07:04;4.50;;;2.25;;
21101;SDS011;10709;49.006;12.100;2023-07-22T19:09:31;3.38;;;2.00;;
21101;SDS011;10709;49.006;12.100;2023-07-22T19:11:57;3.83;;;2.20;;
21101;SDS011;10709;49.006;12.100;2023-07-22T19:14:24;3.78;;;2.30;;
21101;SDS011;10709;49.006;12.100;2023-07-22T19:16:56;2.60;;;1.90;;
21101;SDS011;10709;49.006;12.100;2023-07-22T19:19:23;3.45;;;2.20;;
21101;SDS011;10709;49.006;12.100;2023-07-22T19:21:53;2.70;;;2.05;;
21101;SDS011;10709;49.006;12.100;2023-07-22T19:24:20;3.33;;;2.20;;
21101;SDS011;10709;49.006;12.100;2023-07-22T19:26:47;2.63;;;2.20;;
21101;SDS011;10709;49.006;12.100;2023-07-22T19:29:14;3.47;;;1.90;;
21101;SDS011;10709;49.006;12.100;2023-07-22T19:31:40;3.30;;;2.17;;
21101;SDS011;10709;49.006;12.100;2023-07-22T19:34:07;3.80;;;2.00;;
21101;SDS011;10709;49.006;12.100;2023-07-22T19:36:36;2.67;;;1.90;;
21101;SDS011;10709;49.006;12.100;2023-07-22T19:39:04;3.13;;;2.25;;
21101;SDS011;10709;49.006;12.100;2023-07-22T19:41:30;3.97;;;2.42;;
21101;SDS011;10709;49.006;12.100;2023-07-22T19:43:57;2.67;;;2.30;;
21101;SDS011;10709;49.006;12.100;2023-07-22T19:46:23;4.78;;;2.25;;
21101;SDS011;10709;49.006;12.100;2023-07-22T19:48:50;3.40;;;2.17;;
21101;SDS011;10709;49.006;12.100;2023-07-22T19:51:17;3.17;;;2.30;;
21101;SDS011;10709;49.006;12.100;2023-07-22T19:53:45;6.28;;;2.20;;
21101;SDS011;10709;49.006;12.100;2023-07-22T19:56:12;2.58;;;2.10;;
21101;SDS011;10709;49.006;12.100;2023-07-22T19:58:39;5.70;;;2.30;;
21101;SDS011;10709;49.006;12.100;2023-07-22T20:01:06;3.95;;;2.13;;
21101;SDS011;10709;49.006;12.100;2023-07-22T20:03:32;3.85;;;2.42;;
21101;SDS011;10709;49.006;12.100;2023-07-22T20:06:05;2.40;;;2.05;;
21101;SDS011;10709;49.006;12.100;2023-07-22T20:08:32;2.92;;;2.35;;
21101;SDS011;10709;49.006;12.100;2023-07-22T20:10:59;3.50;;;2.17;;
21101;SDS011;10709;49.006;12.100;2023-07-22T20:13:25;3.42;;;2.05;;
21101;SDS011;10709;49.006;12.100;2023-07-22T20:15:52;4.40;;;2.38;;
21101;SDS011;10709;49.006;12.100;2023-07-22T20:18:18;3.30;;;2.10;;
21101;SDS011;10709;49.006;12.100;2023-07-22T20:20:45;4.30;;;2.30;;
21101;SDS011;10709;49.006;12.100;2023-07-22T20:23:11;4.30;;;1.92;;
21101;SDS011;10709;49.006;12.100;2023-07-22T20:25:39;3.72;;;2.15;;
21101;SDS011;10709;49.006;12.100;2023-07-22T20:28:06;2.25;;;2.03;;
21101;SDS011;10709;49.006;12.100;2023-07-22T20:30:33;2.40;;;2.20;;
21101;SDS011;10709;49.006;12.100;2023-07-22T20:32:59;2.92;;;2.30;;
21101;SDS011;10709;49.006;12.100;2023-07-22T20:35:26;3.05;;;2.17;;
21101;SDS011;10709;49.006;12.100;2023-07-22T20:37:54;3.60;;;2.13;;
21101;SDS011;10709;49.006;12.100;2023-07-22T20:40:20;4.57;;;2.70;;
21101;SDS011;10709;49.006;12.100;2023-07-22T20:42:48;2.83;;;2.50;;
21101;SDS011;10709;49.006;12.100;2023-07-22T20:45:14;3.38;;;2.50;;
21101;SDS011;10709;49.006;12.100;2023-07-22T20:47:41;4.55;;;2.50;;
21101;SDS011;10709;49.006;12.100;2023-07-22T20:50:07;3.20;;;2.70;;
21101;SDS011;10709;49.006;12.100;2023-07-22T20:52:37;4.43;;;2.97;;
21101;SDS011;10709;49.006;12.100;2023-07-22T20:55:04;4.70;;;3.33;;
21101;SDS011;10709;49.006;12.100;2023-07-22T20:57:34;6.43;;;3.65;;
21101;SDS011;10709;49.006;12.100;2023-07-22T21:00:01;6.40;;;3.70;;
21101;SDS011;10709;49.006;12.100;2023-07-22T21:02:29;6.70;;;3.60;;
21101;SDS011;10709;49.006;12.100;2023-07-22T21:04:56;4.10;;;3.20;;
21101;SDS011;10709;49.006;12.100;2023-07-22T21:07:23;4.32;;;3.20;;
21101;SDS011;10709;49.006;12.100;2023-07-22T21:09:52;5.32;;;3.30;;
21101;SDS011;10709;49.006;12.100;2023-07-22T21:12:19;3.70;;;3.33;;
21101;SDS011;10709;49.006;12.100;2023-07-22T21:14:46;4.80;;;3.53;;
21101;SDS011;10709;49.006;12.100;2023-07-22T21:17:12;7.55;;;3.50;;
21101;SDS011;10709;49.006;12.100;2023-07-22T21:19:39;5.53;;;4.00;;
21101;SDS011;10709;49.006;12.100;2023-07-22T21:22:08;6.78;;;3.40;;
21101;SDS011;10709;49.006;12.100;2023-07-22T21:24:36;7.35;;;3.63;;
21101;SDS011;10709;49.006;12.100;2023-07-22T21:27:03;5.10;;;3.50;;
21101;SDS011;10709;49.006;12.100;2023-07-22T21:29:30;4.55;;;3.47;;
21101;SDS011;10709;49.006;12.100;2023-07-22T21:39:47;8.15;;;4.38;;
21101;SDS011;10709;49.006;12.100;2023-07-22T21:47:32;8.13;;;4.07;;
21101;SDS011;10709;49.006;12.100;2023-07-22T22:02:43;5.15;;;3.28;;
21101;SDS011;10709;49.006;12.100;2023-07-22T22:06:07;5.45;;;3.20;;
21101;SDS011;10709;49.006;12.100;2023-07-22T22:14:00;3.75;;;2.90;;
21101;SDS011;10709;49.006;12.100;2023-07-22T22:18:07;4.10;;;3.00;;
21101;SDS011;10709;49.006;12.100;2023-07-22T22:22:23;6.05;;;3.17;;
21101;SDS011;10709;49.006;12.100;2023-07-22T22:34:20;5.68;;;2.85;;
21101;SDS011;10709;49.006;12.100;2023-07-22T22:38:13;4.10;;;3.30;;
21101;SDS011;10709;49.006;12.100;2023-07-22T22:45:43;3.17;;;2.88;;
21101;SDS011;10709;49.006;12.100;2023-07-22T22:49:48;3.38;;;2.60;;
21101;SDS011;10709;49.006;12.100;2023-07-22T22:53:06;4.00;;;3.15;;
21101;SDS011;10709;49.006;12.100;2023-07-22T22:56:05;4.75;;;3.10;;
21101;SDS011;10709;49.006;12.100;2023-07-22T22:59:41;4.40;;;2.95;;
21101;SDS011;10709;49.006;12.100;2023-07-22T23:02:59;4.05;;;3.20;;
21101;SDS011;10709;49.006;12.100;2023-07-22T23:06:14;4.28;;;2.80;;
21101;SDS011;10709;49.006;12.100;2023-07-22T23:09:34;4.65;;;2.90;;
21101;SDS011;10709;49.006;12.100;2023-07-22T23:12:40;5.18;;;3.33;;